createdAt,value
2022-08-07T00:03:07.111Z,21.60
2022-08-07T00:06:34.317Z,21.60
2022-08-07T00:10:19.191Z,21.50
2022-08-07T00:13:44.880Z,21.50
2022-08-07T00:17:08.642Z,21.40
2022-08-07T00:20:34.526Z,21.40
2022-08-07T00:24:00.567Z,21.30
2022-08-07T00:27:24.385Z,21.30
2022-08-07T00:30:51.402Z,21.30
2022-08-07T00:34:15.220Z,21.20
2022-08-07T00:37:47.685Z,21.20
2022-08-07T00:41:15.138Z,21.20
2022-08-07T00:44:41.493Z,21.10
2022-08-07T00:48:09.254Z,21.10
2022-08-07T00:51:56.472Z,21.10
2022-08-07T00:55:25.511Z,21.10
2022-08-07T00:59:05.627Z,21.00
2022-08-07T01:02:29.750Z,21.00
2022-08-07T01:05:56.989Z,21.00
2022-08-07T01:10:04.387Z,21.00
2022-08-07T01:13:04.126Z,20.90
2022-08-07T01:16:30.819Z,20.90
2022-08-07T01:20:04.944Z,20.80
2022-08-07T01:23:38.531Z,20.80
2022-08-07T01:27:04.605Z,20.80
2022-08-07T01:30:32.098Z,20.70
2022-08-07T01:33:57.492Z,20.70
2022-08-07T01:37:25.609Z,20.70
2022-08-07T01:40:56.285Z,20.80
2022-08-07T01:44:20.525Z,20.60
2022-08-07T01:48:29.674Z,20.60
2022-08-07T01:52:03.377Z,20.60
2022-08-07T01:55:22.522Z,20.60
2022-08-07T01:58:55.269Z,20.60
2022-08-07T02:02:32.898Z,20.60
2022-08-07T02:06:30.669Z,20.60
2022-08-07T02:09:58.980Z,20.50
2022-08-07T02:13:47.018Z,20.40
2022-08-07T02:17:24.868Z,20.40
2022-08-07T02:20:57.436Z,20.40
2022-08-07T02:24:22.250Z,20.40
2022-08-07T02:27:51.209Z,20.40
2022-08-07T02:31:28.234Z,20.40
2022-08-07T02:34:58.209Z,20.30
2022-08-07T02:38:31.583Z,20.30
2022-08-07T02:41:59.022Z,20.20
2022-08-07T02:45:58.547Z,20.20
2022-08-07T02:49:10.766Z,20.20
2022-08-07T02:53:06.115Z,20.10
2022-08-07T02:56:34.022Z,20.10
2022-08-07T03:00:04.931Z,20.10
2022-08-07T03:03:50.038Z,20.10
2022-08-07T03:07:25.272Z,20.00
2022-08-07T03:11:07.437Z,20.00
2022-08-07T03:14:37.351Z,20.00
2022-08-07T03:18:01.627Z,20.00
2022-08-07T03:21:27.741Z,19.90
2022-08-07T03:24:51.793Z,19.90
2022-08-07T03:28:37.217Z,19.80
2022-08-07T03:32:06.755Z,19.80
2022-08-07T03:35:43.866Z,19.80
2022-08-07T03:39:18.152Z,19.70
2022-08-07T03:43:03.023Z,19.60
2022-08-07T03:46:33.457Z,19.60
2022-08-07T03:49:59.546Z,19.50
2022-08-07T03:54:01.883Z,19.50
2022-08-07T03:58:35.204Z,19.50
2022-08-07T04:01:02.031Z,19.40
2022-08-07T04:04:29.275Z,19.40
2022-08-07T04:07:59.537Z,19.40
2022-08-07T04:12:24.220Z,19.40
2022-08-07T04:15:11.148Z,19.30
2022-08-07T04:18:59.181Z,19.40
2022-08-07T04:22:22.922Z,19.40
2022-08-07T04:25:48.612Z,19.40
2022-08-07T04:29:13.551Z,19.50
2022-08-07T04:32:44.617Z,19.80
2022-08-07T04:36:10.307Z,20.00
2022-08-07T04:39:36.627Z,20.20
2022-08-07T04:43:03.462Z,20.40
2022-08-07T04:46:59.547Z,20.70
2022-08-07T04:50:38.230Z,20.90
2022-08-07T04:54:22.639Z,21.10
2022-08-07T04:58:12.382Z,21.40
2022-08-07T05:02:03.070Z,21.80
2022-08-07T05:05:53.993Z,22.30
2022-08-07T05:09:45.609Z,22.80
2022-08-07T05:14:55.125Z,23.50
2022-08-07T05:17:11.856Z,24.20
2022-08-07T05:20:42.841Z,24.70
2022-08-07T05:24:13.986Z,25.30
2022-08-07T05:28:16.957Z,25.80
2022-08-07T05:31:34.646Z,26.40
2022-08-07T05:35:00.584Z,27.00
2022-08-07T05:38:59.485Z,27.50
2022-08-07T05:42:15.880Z,28.00
2022-08-07T05:46:01.162Z,28.50
2022-08-07T05:49:27.720Z,29.00
2022-08-07T05:53:05.961Z,29.50
2022-08-07T05:56:51.251Z,29.90
2022-08-07T06:00:16.985Z,30.30
2022-08-07T06:03:58.682Z,30.70
2022-08-07T06:08:05.403Z,31.10
2022-08-07T06:11:14.955Z,31.50
2022-08-07T06:14:39.777Z,31.90
2022-08-07T06:18:04.786Z,32.20
2022-08-07T06:22:14.427Z,32.60
2022-08-07T06:25:15.274Z,33.10
2022-08-07T06:28:50.697Z,33.40
2022-08-07T06:32:17.263Z,33.80
2022-08-07T06:35:47.917Z,34.20
2022-08-07T06:40:16.590Z,34.50
2022-08-07T06:43:21.644Z,34.90
2022-08-07T06:47:10.338Z,35.20
2022-08-07T06:50:43.225Z,35.50
2022-08-07T06:55:28.956Z,35.80
2022-08-07T06:58:05.507Z,36.10
2022-08-07T07:01:50.844Z,36.40
2022-08-07T07:06:05.537Z,36.70
2022-08-07T07:09:18.666Z,37.00
2022-08-07T07:12:50.612Z,37.20
2022-08-07T07:16:23.001Z,37.50
2022-08-07T07:20:00.546Z,37.70
2022-08-07T07:24:09.587Z,37.90
2022-08-07T07:27:17.954Z,38.10
2022-08-07T07:30:51.749Z,38.20
2022-08-07T07:34:27.925Z,38.30
2022-08-07T07:38:02.677Z,38.50
2022-08-07T07:42:01.926Z,38.70
2022-08-07T07:45:19.386Z,38.80
2022-08-07T07:48:49.826Z,38.80
2022-08-07T07:52:26.580Z,38.80
2022-08-07T07:55:57.907Z,38.70
2022-08-07T07:59:52.604Z,38.50
2022-08-07T08:04:06.193Z,38.30
2022-08-07T08:07:07.647Z,38.10
2022-08-07T08:10:37.921Z,37.90
2022-08-07T08:14:04.082Z,37.80
2022-08-07T08:17:57.872Z,37.70
2022-08-07T08:21:55.661Z,37.80
2022-08-07T08:25:42.388Z,37.90
2022-08-07T08:29:19.370Z,38.20
2022-08-07T08:32:50.549Z,38.40
2022-08-07T08:36:16.352Z,38.60
2022-08-07T08:39:55.075Z,38.70
2022-08-07T08:43:42.847Z,38.90
2022-08-07T08:47:30.569Z,39.00
2022-08-07T08:51:03.757Z,39.20
2022-08-07T08:54:46.257Z,39.10
2022-08-07T08:58:28.359Z,38.80
2022-08-07T09:02:09.479Z,38.60
2022-08-07T09:05:49.027Z,38.40
2022-08-07T09:09:33.332Z,38.40
2022-08-07T09:13:10.832Z,38.50
2022-08-07T09:16:55.706Z,38.70
2022-08-07T09:20:35.511Z,38.90
2022-08-07T09:24:31.147Z,39.00
2022-08-07T09:30:01.134Z,39.00
2022-08-07T09:32:18.543Z,38.80
2022-08-07T09:36:03.470Z,38.70
2022-08-07T09:39:53.903Z,38.70
2022-08-07T09:44:03.678Z,38.80
2022-08-07T09:47:59.972Z,38.90
2022-08-07T09:52:09.874Z,39.00
2022-08-07T09:56:02.844Z,39.10
2022-08-07T10:00:00.622Z,39.20
2022-08-07T10:04:14.477Z,39.30
2022-08-07T10:08:05.189Z,39.30
2022-08-07T10:12:01.136Z,39.40
2022-08-07T10:15:50.786Z,39.50
2022-08-07T10:19:38.989Z,39.60
2022-08-07T10:24:06.185Z,39.50
2022-08-07T10:27:51.150Z,39.40
2022-08-07T10:31:45.218Z,39.20
2022-08-07T10:35:25.747Z,39.20
2022-08-07T10:38:59.917Z,39.10
2022-08-07T10:42:37.208Z,38.90
2022-08-07T10:46:10.277Z,38.80
2022-08-07T10:49:49.956Z,38.80
2022-08-07T10:53:28.618Z,38.80
2022-08-07T10:57:16.364Z,38.70
2022-08-07T11:01:11.432Z,38.60
2022-08-07T11:05:10.528Z,38.50
2022-08-07T11:08:49.794Z,38.50
2022-08-07T11:12:32.051Z,38.60
2022-08-07T11:16:10.199Z,38.70
2022-08-07T11:19:44.483Z,38.70
2022-08-07T11:23:30.803Z,38.90
2022-08-07T11:27:13.456Z,38.90
2022-08-07T11:30:51.189Z,38.90
2022-08-07T11:34:28.288Z,39.00
2022-08-07T11:38:12.488Z,39.20
2022-08-07T11:42:02.093Z,39.30
2022-08-07T11:45:49.890Z,39.30
2022-08-07T11:50:30.495Z,39.30
2022-08-07T11:54:01.737Z,39.30
2022-08-07T11:58:00.878Z,39.40
2022-08-07T12:01:59.171Z,39.50
2022-08-07T12:05:47.085Z,39.60
2022-08-07T12:09:23.377Z,39.60
2022-08-07T12:12:57.631Z,39.50
2022-08-07T12:16:30.127Z,39.40
2022-08-07T12:20:09.479Z,39.30
2022-08-07T12:24:07.720Z,39.30
2022-08-07T12:28:08.741Z,39.20
2022-08-07T12:32:02.471Z,39.30
2022-08-07T12:35:26.777Z,39.10
2022-08-07T12:38:57.877Z,39.00
2022-08-07T12:42:28.528Z,38.80
2022-08-07T12:46:15.896Z,38.70
2022-08-07T12:50:04.906Z,38.70
2022-08-07T12:54:02.861Z,38.60
2022-08-07T12:57:39.068Z,38.50
2022-08-07T13:01:33.648Z,38.40
2022-08-07T13:06:03.356Z,38.20
2022-08-07T13:10:21.748Z,38.00
2022-08-07T13:13:47.007Z,37.90
2022-08-07T13:17:21.162Z,37.80
2022-08-07T13:20:51.912Z,37.60
2022-08-07T13:24:25.855Z,37.50
2022-08-07T13:28:11.104Z,37.20
2022-08-07T13:31:57.249Z,37.00
2022-08-07T13:36:00.256Z,36.80
2022-08-07T13:40:34.091Z,36.60
2022-08-07T13:43:22.768Z,36.40
2022-08-07T13:46:49.982Z,36.30
2022-08-07T13:50:33.400Z,36.10
2022-08-07T13:54:03.570Z,36.10
2022-08-07T13:57:37.575Z,35.90
2022-08-07T14:01:14.563Z,35.80
2022-08-07T14:04:55.030Z,35.70
2022-08-07T14:08:22.305Z,35.50
2022-08-07T14:12:00.212Z,35.30
2022-08-07T14:15:36.433Z,35.20
2022-08-07T14:19:06.137Z,34.90
2022-08-07T14:22:36.391Z,34.70
2022-08-07T14:26:11.304Z,34.40
2022-08-07T14:30:05.044Z,34.20
2022-08-07T14:33:44.192Z,34.00
2022-08-07T14:37:16.538Z,33.80
2022-08-07T14:40:49.519Z,33.70
2022-08-07T14:44:15.885Z,33.60
2022-08-07T14:47:42.592Z,33.50
2022-08-07T14:51:15.922Z,33.40
2022-08-07T14:54:45.480Z,34.30
2022-08-07T14:58:24.111Z,33.30
2022-08-07T15:05:32.181Z,33.00
2022-08-07T15:09:03.922Z,32.90
2022-08-07T15:12:54.626Z,32.80
2022-08-07T15:16:20.190Z,32.70
2022-08-07T15:25:14.757Z,32.30
2022-08-07T15:28:32.368Z,32.10
2022-08-07T15:35:19.251Z,31.80
2022-08-07T15:39:10.536Z,31.70
2022-08-07T15:42:53.864Z,31.60
2022-08-07T15:46:37.586Z,31.50
2022-08-07T15:50:07.641Z,31.40
2022-08-07T15:53:42.175Z,31.30
2022-08-07T15:57:39.204Z,31.20
2022-08-07T16:01:20.408Z,31.10
2022-08-07T16:04:45.383Z,31.10
2022-08-07T16:08:31.069Z,31.10
2022-08-07T16:12:14.696Z,31.00
2022-08-07T16:16:08.627Z,30.90
2022-08-07T16:20:33.038Z,30.80
2022-08-07T16:24:34.684Z,30.80
2022-08-07T16:29:18.765Z,30.70
2022-08-07T16:32:02.076Z,30.70
2022-08-07T16:35:52.006Z,30.70
2022-08-07T16:39:58.773Z,30.60
2022-08-07T16:44:06.046Z,30.60
2022-08-07T16:48:34.441Z,30.60
2022-08-07T16:52:51.721Z,30.50
2022-08-07T16:56:21.516Z,30.50
2022-08-07T16:59:57.826Z,30.40
2022-08-07T17:03:59.351Z,30.40
2022-08-07T17:07:28.373Z,30.30
2022-08-07T17:11:23.340Z,30.20
2022-08-07T17:14:56.886Z,30.20
2022-08-07T17:18:38.203Z,30.10
2022-08-07T17:22:12.152Z,30.10
2022-08-07T17:25:54.459Z,30.00
2022-08-07T17:30:15.732Z,30.00
2022-08-07T17:34:09.446Z,30.00
2022-08-07T17:38:06.510Z,30.00
2022-08-07T17:42:04.479Z,30.00
2022-08-07T17:45:00.233Z,30.00
2022-08-07T17:48:31.228Z,30.00
2022-08-07T17:52:01.708Z,30.00
2022-08-07T17:56:00.097Z,29.90
2022-08-07T17:59:26.808Z,29.90
2022-08-07T18:03:09.569Z,29.90
2022-08-07T18:06:43.426Z,29.90
2022-08-07T18:10:28.635Z,29.90
2022-08-07T18:14:05.713Z,29.90
2022-08-07T18:18:47.683Z,29.80
2022-08-07T18:21:51.736Z,29.80
2022-08-07T18:25:40.857Z,29.80
2022-08-07T18:30:05.571Z,29.80
2022-08-07T18:33:55.159Z,29.70
2022-08-07T18:38:57.225Z,29.60
2022-08-07T18:41:45.151Z,29.50
2022-08-07T18:45:43.113Z,29.40
2022-08-07T18:50:30.573Z,29.40
2022-08-07T18:53:14.806Z,29.20
2022-08-07T18:56:58.162Z,29.20
2022-08-07T19:00:54.387Z,29.10
2022-08-07T19:04:54.609Z,29.00
2022-08-07T19:08:34.074Z,28.90
2022-08-07T19:12:17.913Z,28.80
2022-08-07T19:16:04.528Z,28.70
2022-08-07T19:19:54.621Z,28.60
2022-08-07T19:23:57.510Z,28.50
2022-08-07T19:28:30.585Z,28.40
2022-08-07T19:31:42.876Z,28.30
2022-08-07T19:35:04.927Z,28.20
2022-08-07T19:38:52.588Z,28.00
2022-08-07T19:42:24.631Z,27.90
2022-08-07T19:46:07.968Z,27.80
2022-08-07T19:49:57.280Z,27.60
2022-08-07T19:54:35.555Z,27.40
2022-08-07T19:58:01.224Z,27.30
2022-08-07T20:01:01.952Z,27.10
2022-08-07T20:04:31.061Z,27.00
2022-08-07T20:08:00.583Z,26.90
2022-08-07T20:12:22.347Z,26.70
2022-08-07T20:15:21.904Z,26.60
2022-08-07T20:18:48.347Z,26.40
2022-08-07T20:22:14.783Z,26.30
2022-08-07T20:25:52.976Z,26.20
2022-08-07T20:29:48.402Z,26.10
2022-08-07T20:33:24.307Z,26.00
2022-08-07T20:37:00.213Z,25.90
2022-08-07T20:40:32.120Z,25.80
2022-08-07T20:44:00.874Z,25.70
2022-08-07T20:47:57.287Z,25.60
2022-08-07T20:51:12.810Z,25.60
2022-08-07T20:54:36.292Z,25.50
2022-08-07T20:58:03.849Z,25.50
2022-08-07T21:01:45.807Z,25.40
2022-08-07T21:05:42.637Z,25.40
2022-08-07T21:09:14.054Z,25.30
2022-08-07T21:12:39.585Z,25.20
2022-08-07T21:16:09.073Z,25.20
2022-08-07T21:19:51.837Z,25.10
2022-08-07T21:23:50.655Z,25.10
2022-08-07T21:27:27.650Z,25.00
2022-08-07T21:31:15.082Z,25.00
2022-08-07T21:34:48.525Z,24.90
2022-08-07T21:38:27.836Z,24.90
2022-08-07T21:42:10.794Z,24.80
2022-08-07T21:46:05.344Z,24.80
2022-08-07T21:50:02.348Z,24.70
2022-08-07T21:53:36.987Z,24.70
2022-08-07T21:57:40.142Z,24.60
2022-08-07T22:01:50.245Z,24.50
2022-08-07T22:05:12.324Z,24.50
2022-08-07T22:08:56.906Z,24.40
2022-08-07T22:12:31.700Z,24.30
2022-08-07T22:16:38.994Z,24.30
2022-08-07T22:20:23.788Z,24.30
2022-08-07T22:23:55.724Z,24.20
2022-08-07T22:27:34.071Z,24.20
2022-08-07T22:31:55.969Z,24.10
2022-08-07T22:35:08.960Z,24.10
2022-08-07T22:38:52.720Z,24.00
2022-08-07T22:42:25.988Z,23.90
2022-08-07T22:46:46.987Z,23.90
2022-08-07T22:50:33.549Z,23.80
2022-08-07T22:54:16.118Z,23.80
2022-08-07T22:57:59.475Z,23.70
2022-08-07T23:01:51.094Z,23.70
2022-08-07T23:06:14.943Z,23.60
2022-08-07T23:10:35.512Z,23.50
2022-08-07T23:14:16.228Z,23.40
2022-08-07T23:18:00.560Z,23.30
2022-08-07T23:21:36.851Z,23.20
2022-08-07T23:25:21.473Z,23.20
2022-08-07T23:29:43.168Z,23.10
2022-08-07T23:34:36.301Z,23.00
2022-08-07T23:38:00.881Z,23.00
2022-08-07T23:42:01.539Z,23.00
2022-08-07T23:46:03.002Z,22.90
2022-08-07T23:50:00.552Z,22.90
2022-08-07T23:53:51.615Z,22.80
2022-08-07T23:57:41.816Z,22.70
